createdAt,value
2018-12-22T00:00:21.630Z,15.9
2018-12-22T00:01:23.800Z,16.1
2018-12-22T00:02:25.938Z,15.9
2018-12-22T00:03:28.089Z,16
2018-12-22T00:04:30.275Z,15.9
2018-12-22T00:05:32.699Z,15.9
2018-12-22T00:06:34.588Z,16.1
2018-12-22T00:07:37.010Z,16.2
2018-12-22T00:08:39.443Z,16.2
2018-12-22T00:09:41.616Z,16.1
2018-12-22T00:10:43.756Z,16.1
2018-12-22T00:11:45.909Z,16.1
2018-12-22T00:12:48.051Z,16.2
2018-12-22T00:13:49.659Z,16.2
2018-12-22T00:14:52.110Z,16.3
2018-12-22T00:15:54.240Z,16.3
2018-12-22T00:16:56.673Z,16.3
2018-12-22T00:17:59.126Z,16.3
2018-12-22T00:19:01.558Z,16.3
2018-12-22T00:20:03.463Z,16.2
2018-12-22T00:21:05.896Z,16.2
2018-12-22T00:22:08.077Z,16.3
2018-12-22T00:23:10.495Z,16.3
2018-12-22T00:24:12.942Z,16.2
2018-12-22T00:25:15.091Z,16.2
2018-12-22T00:26:17.512Z,16.2
2018-12-22T00:27:19.662Z,16.1
2018-12-22T00:28:22.858Z,16.2
2018-12-22T00:29:24.723Z,16.2
2018-12-22T00:30:27.213Z,16.2
2018-12-22T00:31:29.759Z,16.1
2018-12-22T00:32:31.907Z,16.2
2018-12-22T00:33:34.333Z,16
2018-12-22T00:34:36.477Z,16.1
2018-12-22T00:35:38.633Z,16.2
2018-12-22T00:36:41.062Z,16.1
2018-12-22T00:37:42.692Z,16.1
2018-12-22T00:38:44.863Z,16.1
2018-12-22T00:39:47.296Z,16
2018-12-22T00:40:49.718Z,16
2018-12-22T00:41:52.195Z,16
2018-12-22T00:42:54.355Z,16
2018-12-22T00:43:56.250Z,16.1
2018-12-22T00:44:58.418Z,16
2018-12-22T00:46:00.578Z,16
2018-12-22T00:47:03.006Z,16.1
2018-12-22T00:48:05.168Z,16.1
2018-12-22T00:49:07.419Z,16
2018-12-22T00:50:09.027Z,16
2018-12-22T00:51:10.955Z,16.1
2018-12-22T00:52:13.105Z,16
2018-12-22T00:53:15.347Z,16.1
2018-12-22T00:54:18.634Z,16
2018-12-22T00:55:20.511Z,16
2018-12-22T00:56:23.045Z,16.1
2018-12-22T00:57:25.273Z,16
2018-12-22T00:59:32.688Z,16
2018-12-22T01:00:35.110Z,16.2
2018-12-22T01:01:37.264Z,16
2018-12-22T01:02:39.690Z,16.1
2018-12-22T01:03:42.114Z,16
2018-12-22T01:04:44.546Z,16.1
2018-12-22T01:05:46.411Z,16.1
2018-12-22T01:06:48.562Z,16.2
2018-12-22T01:07:51.006Z,16
2018-12-22T01:08:53.151Z,16.1
2018-12-22T01:09:55.576Z,16.1
2018-12-22T01:10:57.996Z,16.2
2018-12-22T01:12:00.434Z,16
2018-12-22T01:13:02.085Z,16
2018-12-22T01:14:03.956Z,15.9
2018-12-22T01:15:06.109Z,16
2018-12-22T01:16:08.559Z,16.2
2018-12-22T01:17:10.983Z,16.2
2018-12-22T01:18:13.415Z,16.1
2018-12-22T01:19:15.303Z,16
2018-12-22T01:20:17.457Z,16
2018-12-22T01:21:19.894Z,16
2018-12-22T01:22:22.330Z,16
2018-12-22T01:23:24.207Z,16.2
2018-12-22T01:24:26.368Z,16.1
2018-12-22T01:25:28.793Z,16.1
2018-12-22T01:26:31.273Z,16
2018-12-22T01:27:33.698Z,16.1
2018-12-22T01:29:41.131Z,16.1
2018-12-22T01:30:43.563Z,16
2018-12-22T01:31:45.987Z,16.1
2018-12-22T01:32:48.415Z,16.1
2018-12-22T01:33:50.572Z,16.1
2018-12-22T01:34:52.719Z,16.1
2018-12-22T01:35:54.886Z,16.2
2018-12-22T01:36:56.781Z,16.1
2018-12-22T01:37:59.228Z,16.1
2018-12-22T01:39:01.662Z,16.1
2018-12-22T01:40:04.102Z,16.1
2018-12-22T01:41:05.984Z,16.1
2018-12-22T01:42:08.434Z,16.1
2018-12-22T01:43:10.601Z,15.9
2018-12-22T01:44:13.027Z,15.9
2018-12-22T01:45:15.468Z,16
2018-12-22T01:46:17.654Z,16
2018-12-22T01:47:20.093Z,16.1
2018-12-22T01:48:22.269Z,16
2018-12-22T01:50:29.675Z,16.1
2018-12-22T01:51:31.857Z,16
2018-12-22T01:52:34.016Z,16
2018-12-22T01:53:36.453Z,16
2018-12-22T01:54:38.967Z,16
2018-12-22T01:55:41.395Z,16.1
2018-12-22T01:56:43.821Z,16.1
2018-12-22T01:57:46.257Z,16
2018-12-22T01:58:48.709Z,16
2018-12-22T01:59:50.863Z,16
2018-12-22T02:00:53.293Z,16
2018-12-22T02:01:55.729Z,16
2018-12-22T02:02:58.155Z,16
2018-12-22T02:04:00.301Z,16.1
2018-12-22T02:05:02.185Z,16.1
2018-12-22T02:06:04.363Z,16
2018-12-22T02:07:06.535Z,16
2018-12-22T02:08:08.965Z,16.2
2018-12-22T02:09:10.857Z,16.1
2018-12-22T02:10:13.286Z,16.1
2018-12-22T02:11:15.145Z,16
2018-12-22T02:12:17.035Z,16.1
2018-12-22T02:13:19.473Z,16.2
2018-12-22T02:14:21.919Z,16.1
2018-12-22T02:15:24.081Z,15.9
2018-12-22T02:16:26.508Z,15.9
2018-12-22T02:17:28.940Z,16.1
2018-12-22T02:18:31.093Z,16
2018-12-22T02:19:33.522Z,16.1
2018-12-22T02:20:35.675Z,16.1
2018-12-22T02:21:38.116Z,16
2018-12-22T02:22:40.295Z,16.1
2018-12-22T02:23:42.457Z,16.1
2018-12-22T02:24:44.619Z,16.1
2018-12-22T02:25:47.039Z,16
2018-12-22T02:26:49.465Z,16.1
2018-12-22T02:27:51.897Z,16.2
2018-12-22T02:29:59.306Z,16.1
2018-12-22T02:31:01.766Z,16.1
2018-12-22T02:32:04.191Z,16
2018-12-22T02:33:06.342Z,16
2018-12-22T02:34:08.496Z,16.2
2018-12-22T02:35:10.929Z,15.9
2018-12-22T02:36:13.083Z,16.1
2018-12-22T02:37:15.515Z,16.1
2018-12-22T02:38:17.944Z,16.1
2018-12-22T02:39:20.359Z,16.1
2018-12-22T02:40:22.494Z,16.1
2018-12-22T02:41:24.666Z,16
2018-12-22T02:42:26.851Z,16.2
2018-12-22T02:43:28.468Z,16.2
2018-12-22T02:44:30.908Z,16.1
2018-12-22T02:45:33.054Z,16
2018-12-22T02:46:35.202Z,16
2018-12-22T02:47:37.662Z,16
2018-12-22T02:48:40.107Z,15.9
2018-12-22T02:49:42.270Z,15.9
2018-12-22T02:50:44.155Z,16
2018-12-22T02:51:46.589Z,16.1
2018-12-22T02:52:48.462Z,16
2018-12-22T02:53:50.894Z,16.1
2018-12-22T02:54:53.310Z,16
2018-12-22T02:55:55.465Z,16
2018-12-22T02:56:57.900Z,16
2018-12-22T02:58:00.321Z,16.1
2018-12-22T03:00:07.454Z,16
2018-12-22T03:01:09.695Z,15.9
2018-12-22T03:02:11.838Z,16.1
2018-12-22T03:03:14.498Z,16.1
2018-12-22T03:04:16.663Z,15.9
2018-12-22T03:05:18.827Z,16.1
2018-12-22T03:06:20.974Z,16.1
2018-12-22T03:07:23.397Z,16
2018-12-22T03:08:25.821Z,15.9
2018-12-22T03:09:27.892Z,16
2018-12-22T03:10:29.778Z,16
2018-12-22T03:11:32.204Z,16.1
2018-12-22T03:12:34.622Z,16
2018-12-22T03:13:37.047Z,16
2018-12-22T03:14:39.337Z,16.1
2018-12-22T03:15:41.466Z,15.9
2018-12-22T03:16:43.893Z,16.1
2018-12-22T03:17:46.334Z,16
2018-12-22T03:18:48.462Z,16.2
2018-12-22T03:19:50.887Z,16
2018-12-22T03:20:53.320Z,16.1
2018-12-22T03:21:55.757Z,16.1
2018-12-22T03:22:58.297Z,16.1
2018-12-22T03:24:00.714Z,16.2
2018-12-22T03:25:02.865Z,16.1
2018-12-22T03:26:05.314Z,16.1
2018-12-22T03:27:07.726Z,16.2
2018-12-22T03:28:10.164Z,16.2
2018-12-22T03:30:17.572Z,16
2018-12-22T03:31:19.995Z,16
2018-12-22T03:32:22.428Z,16
2018-12-22T03:33:24.596Z,16.1
2018-12-22T03:34:27.021Z,16.1
2018-12-22T03:35:29.147Z,16.1
2018-12-22T03:36:31.575Z,16
2018-12-22T03:37:33.997Z,16.1
2018-12-22T03:38:36.413Z,16.1
2018-12-22T03:39:38.564Z,16.1
2018-12-22T03:40:40.987Z,16.1
2018-12-22T03:41:43.137Z,16.1
2018-12-22T03:42:45.299Z,16.1
2018-12-22T03:43:47.736Z,16.1
2018-12-22T03:44:50.161Z,16
2018-12-22T03:45:52.313Z,16.1
2018-12-22T03:46:54.466Z,16.2
2018-12-22T03:47:56.897Z,16.1
2018-12-22T03:48:59.055Z,16.2
2018-12-22T03:50:00.936Z,16.2
2018-12-22T03:51:03.376Z,16
2018-12-22T03:52:05.803Z,16.1
2018-12-22T03:53:08.337Z,16.1
2018-12-22T03:54:10.764Z,16
2018-12-22T03:55:12.921Z,15.9
2018-12-22T03:56:15.338Z,16
2018-12-22T03:57:17.494Z,16.1
2018-12-22T03:58:19.915Z,16
2018-12-22T04:00:27.092Z,16
2018-12-22T04:01:29.518Z,16
2018-12-22T04:02:31.695Z,16.1
2018-12-22T04:03:34.134Z,16
2018-12-22T04:04:36.305Z,16
2018-12-22T04:05:38.736Z,16
2018-12-22T04:06:41.157Z,16
2018-12-22T04:07:43.586Z,16
2018-12-22T04:08:45.754Z,16.2
2018-12-22T04:09:48.171Z,16
2018-12-22T04:10:50.608Z,16.1
2018-12-22T04:11:52.755Z,16
2018-12-22T04:12:54.883Z,16.1
2018-12-22T04:13:57.067Z,16
2018-12-22T04:14:59.207Z,16.2
2018-12-22T04:16:01.364Z,16.1
2018-12-22T04:17:03.496Z,16
2018-12-22T04:18:05.931Z,16
2018-12-22T04:19:08.362Z,16
2018-12-22T04:20:10.531Z,16.1
2018-12-22T04:21:12.672Z,15.9
2018-12-22T04:22:14.844Z,15.9
2018-12-22T04:23:17.272Z,16
2018-12-22T04:24:19.696Z,15.9
2018-12-22T04:25:22.126Z,16
2018-12-22T04:26:24.563Z,16
2018-12-22T04:27:26.997Z,16
2018-12-22T04:28:29.425Z,16.1
2018-12-22T04:30:36.543Z,15.9
2018-12-22T04:31:38.420Z,16
2018-12-22T04:32:40.882Z,16
2018-12-22T04:33:43.022Z,15.9
2018-12-22T04:34:45.453Z,15.8
2018-12-22T04:35:47.600Z,15.9
2018-12-22T04:36:50.025Z,15.9
2018-12-22T04:37:51.944Z,16
2018-12-22T04:38:54.101Z,16
2018-12-22T04:39:56.559Z,16.1
2018-12-22T04:40:58.820Z,16
2018-12-22T04:42:01.250Z,16
2018-12-22T04:43:03.671Z,16
2018-12-22T04:44:06.095Z,16
2018-12-22T04:45:08.508Z,16
2018-12-22T04:46:10.935Z,16
2018-12-22T04:47:13.369Z,16.1
2018-12-22T04:48:15.254Z,16
2018-12-22T04:49:17.405Z,15.9
2018-12-22T04:50:19.848Z,16.2
2018-12-22T04:51:22.283Z,16
2018-12-22T04:52:24.707Z,15.9
2018-12-22T04:53:26.862Z,15.9
2018-12-22T04:54:29.005Z,16
2018-12-22T04:55:31.437Z,16.1
2018-12-22T04:56:33.590Z,16.1
2018-12-22T04:57:35.767Z,16
2018-12-22T04:58:38.197Z,16.1
2018-12-22T05:00:45.614Z,16.1
2018-12-22T05:01:48.039Z,16.1
2018-12-22T05:02:50.459Z,16
2018-12-22T05:03:52.887Z,15.9
2018-12-22T05:04:55.312Z,16
2018-12-22T05:05:57.475Z,16.1
2018-12-22T05:06:59.664Z,16.1
2018-12-22T05:08:02.104Z,16
2018-12-22T05:09:04.522Z,16.2
2018-12-22T05:10:06.683Z,16.1
2018-12-22T05:11:08.814Z,16
2018-12-22T05:12:11.025Z,16
2018-12-22T05:13:13.458Z,16.1
2018-12-22T05:14:15.895Z,16
2018-12-22T05:15:33.073Z,16
2018-12-22T05:16:35.519Z,16
2018-12-22T05:17:37.944Z,16
2018-12-22T05:18:39.795Z,16.1
2018-12-22T05:19:41.691Z,16.2
2018-12-22T05:20:43.278Z,15.8
2018-12-22T05:21:45.715Z,16
2018-12-22T05:22:48.153Z,16
2018-12-22T05:23:50.323Z,16.1
2018-12-22T05:24:52.749Z,16
2018-12-22T05:25:54.639Z,16
2018-12-22T05:26:57.063Z,15.9
2018-12-22T05:27:59.495Z,16
2018-12-22T05:29:01.913Z,16
2018-12-22T05:30:04.057Z,16
2018-12-22T05:31:06.217Z,16.1
2018-12-22T05:32:08.376Z,16
2018-12-22T05:33:10.809Z,16
2018-12-22T05:34:13.249Z,16.1
2018-12-22T05:35:15.515Z,16
2018-12-22T05:36:17.938Z,16
2018-12-22T05:37:20.121Z,16.1
2018-12-22T05:38:22.010Z,15.9
2018-12-22T05:39:24.170Z,16
2018-12-22T05:40:26.604Z,15.9
2018-12-22T05:41:29.027Z,16
2018-12-22T05:42:31.452Z,16.1
2018-12-22T05:43:33.612Z,16
2018-12-22T05:44:35.525Z,16.2
2018-12-22T05:45:37.964Z,16.1
2018-12-22T05:46:40.404Z,16.1
2018-12-22T05:47:42.310Z,16
2018-12-22T05:48:44.460Z,16
2018-12-22T05:49:46.902Z,16.1
2018-12-22T05:50:49.328Z,16
2018-12-22T05:51:51.497Z,16.1
2018-12-22T05:52:53.401Z,15.9
2018-12-22T05:53:55.573Z,16
2018-12-22T05:54:58.030Z,16.1
2018-12-22T05:55:59.915Z,16
2018-12-22T05:57:02.345Z,16
2018-12-22T05:58:04.793Z,15.9
2018-12-22T05:59:06.945Z,16
2018-12-22T06:00:09.117Z,16.1
2018-12-22T06:01:11.552Z,15.8
2018-12-22T06:02:13.737Z,16
2018-12-22T06:03:15.611Z,16
2018-12-22T06:04:18.040Z,15.8
2018-12-22T06:05:20.198Z,16
2018-12-22T06:06:22.726Z,15.9
2018-12-22T06:07:24.874Z,16
2018-12-22T06:08:26.745Z,16
2018-12-22T06:09:28.909Z,16
2018-12-22T06:10:31.064Z,16
2018-12-22T06:11:33.186Z,16
2018-12-22T06:12:35.073Z,15.9
2018-12-22T06:13:37.533Z,15.9
2018-12-22T06:14:39.416Z,16.1
2018-12-22T06:15:41.566Z,15.8
2018-12-22T06:16:43.763Z,15.9
2018-12-22T06:17:45.890Z,16
2018-12-22T06:18:48.319Z,16.1
2018-12-22T06:19:50.767Z,16
2018-12-22T06:20:52.931Z,16.1
2018-12-22T06:21:55.136Z,16
2018-12-22T06:22:57.561Z,16.2
2018-12-22T06:24:00.045Z,16
2018-12-22T06:25:02.188Z,16.1
2018-12-22T06:26:03.775Z,15.9
2018-12-22T06:27:06.208Z,15.8
2018-12-22T06:28:08.635Z,16.1
2018-12-22T06:29:11.068Z,15.9
2018-12-22T06:30:13.217Z,16.1
2018-12-22T06:31:15.386Z,15.8
2018-12-22T06:32:17.821Z,16
2018-12-22T06:33:20.260Z,16.2
2018-12-22T06:34:22.697Z,16
2018-12-22T06:35:24.621Z,16.1
2018-12-22T06:36:27.067Z,16
2018-12-22T06:37:29.515Z,16
2018-12-22T06:38:31.983Z,15.9
2018-12-22T06:39:34.393Z,15.9
2018-12-22T06:40:36.531Z,15.9
2018-12-22T06:41:38.687Z,16
2018-12-22T06:42:40.600Z,15.9
2018-12-22T06:43:42.761Z,16
2018-12-22T06:44:44.996Z,16
2018-12-22T06:45:46.831Z,16.1
2018-12-22T06:46:49.265Z,15.9
2018-12-22T06:47:53.656Z,16
2018-12-22T06:48:55.865Z,15.9
2018-12-22T06:49:57.721Z,16.1
2018-12-22T06:50:59.615Z,15.9
2018-12-22T06:52:01.774Z,16
2018-12-22T06:53:03.635Z,16.1
2018-12-22T06:54:06.080Z,16.1
2018-12-22T06:55:08.227Z,16.2
2018-12-22T06:56:10.664Z,15.9
2018-12-22T06:57:13.091Z,16.1
2018-12-22T06:58:15.511Z,16
2018-12-22T06:59:17.669Z,15.9
2018-12-22T07:00:20.101Z,15.9
2018-12-22T07:01:21.982Z,16
2018-12-22T07:02:24.414Z,15.9
2018-12-22T07:03:26.689Z,15.9
2018-12-22T07:04:29.128Z,16.1
2018-12-22T07:05:31.273Z,15.8
2018-12-22T07:06:33.697Z,16
2018-12-22T07:07:35.873Z,16
2018-12-22T07:08:38.303Z,15.9
2018-12-22T07:09:40.206Z,16
2018-12-22T07:10:42.359Z,16.1
2018-12-22T07:11:44.513Z,16
2018-12-22T07:12:46.674Z,16
2018-12-22T07:13:49.103Z,16.1
2018-12-22T07:14:51.272Z,15.9
2018-12-22T07:15:53.450Z,16.1
2018-12-22T07:16:55.884Z,15.9
2018-12-22T07:17:57.771Z,15.8
2018-12-22T07:18:59.366Z,16
2018-12-22T07:20:01.552Z,15.9
2018-12-22T07:21:03.981Z,16.1
2018-12-22T07:22:05.881Z,16
2018-12-22T07:23:08.053Z,15.9
2018-12-22T07:24:10.207Z,16.1
2018-12-22T07:25:12.646Z,16
2018-12-22T07:26:15.077Z,16.1
2018-12-22T07:27:17.525Z,16.1
2018-12-22T07:28:19.693Z,16
2018-12-22T07:29:21.954Z,15.9
2018-12-22T07:31:29.371Z,15.9
2018-12-22T07:32:31.799Z,16.1
2018-12-22T07:33:33.945Z,16.1
2018-12-22T07:34:36.139Z,16.1
2018-12-22T07:35:38.335Z,16.1
2018-12-22T07:36:40.764Z,16
2018-12-22T07:37:42.666Z,16
2018-12-22T07:38:44.782Z,15.9
2018-12-22T07:39:46.933Z,16
2018-12-22T07:40:49.053Z,16
2018-12-22T07:41:51.216Z,15.9
2018-12-22T07:42:53.659Z,15.8
2018-12-22T07:43:55.535Z,16.1
2018-12-22T07:44:57.693Z,16.1
2018-12-22T07:45:59.850Z,15.9
2018-12-22T07:47:02.013Z,15.9
2018-12-22T07:48:04.478Z,16.1
2018-12-22T07:49:06.649Z,15.8
2018-12-22T07:50:09.092Z,15.9
2018-12-22T07:51:11.509Z,16
2018-12-22T07:52:13.635Z,16
2018-12-22T07:53:16.083Z,16.1
2018-12-22T07:54:18.497Z,15.9
2018-12-22T07:55:20.933Z,16
2018-12-22T07:56:23.093Z,16.1
2018-12-22T07:57:25.509Z,15.8
2018-12-22T07:58:27.941Z,16.1
2018-12-22T07:59:30.093Z,16
2018-12-22T08:01:36.929Z,16.1
2018-12-22T08:02:39.064Z,16.1
2018-12-22T08:03:40.919Z,16
2018-12-22T08:04:42.812Z,16
2018-12-22T08:05:45.246Z,16
2018-12-22T08:06:47.133Z,16.1
2018-12-22T08:07:49.370Z,15.9
2018-12-22T08:08:51.551Z,15.9
2018-12-22T08:09:54.003Z,16
2018-12-22T08:10:56.155Z,16.1
2018-12-22T08:11:58.310Z,15.9
2018-12-22T08:13:00.455Z,16
2018-12-22T08:14:02.885Z,15.9
2018-12-22T08:15:05.326Z,16
2018-12-22T08:16:07.765Z,16
2018-12-22T08:17:09.917Z,16.1
2018-12-22T08:18:12.368Z,16
2018-12-22T08:19:14.803Z,16.1
2018-12-22T08:20:17.246Z,16
2018-12-22T08:21:19.419Z,16
2018-12-22T08:22:21.859Z,15.9
2018-12-22T08:23:24.380Z,15.9
2018-12-22T08:24:26.828Z,16
2018-12-22T08:25:29.257Z,15.9
2018-12-22T08:26:31.683Z,16
2018-12-22T08:27:34.141Z,16
2018-12-22T08:28:36.566Z,15.8
2018-12-22T08:29:38.462Z,15.9
2018-12-22T08:31:45.889Z,16.1
2018-12-22T08:32:48.012Z,16.1
2018-12-22T08:33:50.433Z,16.1
2018-12-22T08:34:52.873Z,16.1
2018-12-22T08:35:54.762Z,15.9
2018-12-22T08:36:57.180Z,15.9
2018-12-22T08:37:59.456Z,16
2018-12-22T08:39:01.309Z,16
2018-12-22T08:40:03.446Z,16.1
2018-12-22T08:41:05.589Z,16
2018-12-22T08:42:07.759Z,16
2018-12-22T08:43:10.173Z,16
2018-12-22T08:44:12.604Z,15.9
2018-12-22T08:45:14.771Z,15.9
2018-12-22T08:46:17.194Z,16.1
2018-12-22T08:47:19.360Z,16
2018-12-22T08:48:21.254Z,16
2018-12-22T08:49:23.685Z,16
2018-12-22T08:50:25.568Z,15.9
2018-12-22T08:51:27.713Z,15.9
2018-12-22T08:52:30.155Z,16
2018-12-22T08:53:32.584Z,16
2018-12-22T08:54:35.121Z,15.9
2018-12-22T08:55:37.571Z,15.8
2018-12-22T08:56:40.024Z,16
2018-12-22T08:57:42.186Z,15.8
2018-12-22T08:58:44.631Z,15.9
2018-12-22T08:59:47.065Z,16.1
2018-12-22T09:01:54.172Z,15.8
2018-12-22T09:02:56.632Z,16.1
2018-12-22T09:03:58.790Z,16
2018-12-22T09:05:00.962Z,16.1
2018-12-22T09:06:03.156Z,16.1
2018-12-22T09:07:05.283Z,16.1
2018-12-22T09:08:07.437Z,16
2018-12-22T09:09:09.853Z,15.9
2018-12-22T09:10:12.299Z,15.9
2018-12-22T09:11:14.745Z,16
2018-12-22T09:12:17.191Z,16
2018-12-22T09:13:21.478Z,16
2018-12-22T09:14:23.912Z,16.2
2018-12-22T09:15:26.353Z,15.9
2018-12-22T09:16:28.523Z,16
2018-12-22T09:17:30.980Z,16
2018-12-22T09:18:32.950Z,16.1
2018-12-22T09:19:35.371Z,15.9
2018-12-22T09:20:37.530Z,16
2018-12-22T09:21:39.992Z,15.9
2018-12-22T09:22:42.163Z,16
2018-12-22T09:23:44.582Z,16
2018-12-22T09:24:47.170Z,16
2018-12-22T09:25:49.599Z,15.9
2018-12-22T09:26:51.775Z,15.8
2018-12-22T09:27:53.942Z,15.9
2018-12-22T09:28:56.093Z,16
2018-12-22T09:29:57.970Z,16
2018-12-22T09:31:01.453Z,15.9
2018-12-22T09:32:03.888Z,15.9
2018-12-22T09:33:06.316Z,16.1
2018-12-22T09:35:13.476Z,16
2018-12-22T09:36:15.923Z,15.9
2018-12-22T09:37:18.166Z,16
2018-12-22T09:38:20.336Z,16
2018-12-22T09:39:22.769Z,16
2018-12-22T09:40:24.992Z,15.9
2018-12-22T09:41:27.157Z,16.1
2018-12-22T09:42:29.595Z,15.9
2018-12-22T09:43:32.029Z,15.9
2018-12-22T09:44:34.196Z,15.8
2018-12-22T09:45:36.329Z,15.8
2018-12-22T09:46:38.763Z,15.9
2018-12-22T09:47:41.209Z,15.9
2018-12-22T09:48:42.818Z,16.1
2018-12-22T09:49:44.694Z,16
2018-12-22T09:50:46.859Z,15.9
2018-12-22T09:51:49.303Z,16
2018-12-22T09:52:51.829Z,16
2018-12-22T09:53:53.735Z,16
2018-12-22T09:54:56.196Z,16
2018-12-22T09:55:58.633Z,16
2018-12-22T09:57:01.079Z,15.8
2018-12-22T09:58:03.590Z,15.9
2018-12-22T09:59:07.081Z,15.8
2018-12-22T10:00:09.503Z,15.9
2018-12-22T10:01:11.687Z,15.8
2018-12-22T10:02:14.120Z,15.9
2018-12-22T10:03:16.303Z,15.8
2018-12-22T10:04:18.743Z,16.2
2018-12-22T10:05:21.178Z,16.1
2018-12-22T10:06:23.618Z,16.1
2018-12-22T10:07:25.774Z,16.2
2018-12-22T10:08:27.939Z,16.2
2018-12-22T10:09:30.101Z,16.1
2018-12-22T10:10:32.266Z,16.1
2018-12-22T10:11:34.716Z,16.2
2018-12-22T10:12:37.143Z,16
2018-12-22T10:13:39.303Z,16.1
2018-12-22T10:14:41.483Z,16
2018-12-22T10:15:43.937Z,16
2018-12-22T10:16:46.372Z,15.9
2018-12-22T10:17:48.268Z,16.1
2018-12-22T10:18:50.427Z,16.1
2018-12-22T10:19:52.034Z,16
2018-12-22T10:20:54.192Z,16.1
2018-12-22T10:21:56.645Z,16.1
2018-12-22T10:22:59.092Z,16.1
2018-12-22T10:24:01.517Z,16.1
2018-12-22T10:25:03.653Z,16
2018-12-22T10:26:05.845Z,16
2018-12-22T10:27:08.283Z,16
2018-12-22T10:28:10.160Z,15.9
2018-12-22T10:29:12.617Z,16.1
2018-12-22T10:30:15.071Z,16
2018-12-22T10:31:18.520Z,16.1
2018-12-22T10:32:20.949Z,16.1
2018-12-22T10:33:23.079Z,16
2018-12-22T10:34:25.264Z,16.2
2018-12-22T10:35:27.413Z,16.1
2018-12-22T10:36:29.565Z,16.1
2018-12-22T10:37:31.993Z,16.1
2018-12-22T10:38:34.436Z,15.9
2018-12-22T10:39:36.613Z,16.1
2018-12-22T10:40:39.057Z,16.1
2018-12-22T10:41:41.583Z,16
2018-12-22T10:42:43.494Z,16
2018-12-22T10:43:45.659Z,16.1
2018-12-22T10:44:48.107Z,16
2018-12-22T10:45:50.550Z,16
2018-12-22T10:46:52.997Z,16.1
2018-12-22T10:47:55.452Z,15.9
2018-12-22T10:48:57.605Z,16
2018-12-22T10:50:00.259Z,16
2018-12-22T10:51:02.486Z,15.9
2018-12-22T10:52:04.921Z,16.1
2018-12-22T10:53:07.086Z,16
2018-12-22T10:54:09.279Z,16.1
2018-12-22T10:55:11.724Z,16
2018-12-22T10:56:14.207Z,16.1
2018-12-22T10:57:16.100Z,16
2018-12-22T10:58:18.567Z,16.1
2018-12-22T10:59:21.002Z,15.8
2018-12-22T11:00:23.433Z,15.9
2018-12-22T11:01:27.332Z,16
2018-12-22T11:02:29.781Z,15.9
2018-12-22T11:03:32.669Z,16.1
2018-12-22T11:04:35.105Z,16
2018-12-22T11:05:37.547Z,16
2018-12-22T11:06:39.684Z,16
2018-12-22T11:07:42.127Z,15.9
2018-12-22T11:08:44.021Z,16
2018-12-22T11:09:46.488Z,15.9
2018-12-22T11:10:48.916Z,15.9
2018-12-22T11:11:50.792Z,16
2018-12-22T11:12:52.967Z,16
2018-12-22T11:13:54.865Z,16
2018-12-22T11:14:57.316Z,16
2018-12-22T11:15:59.453Z,16
2018-12-22T11:17:01.901Z,15.9
2018-12-22T11:18:04.333Z,16
2018-12-22T11:19:06.488Z,15.9
2018-12-22T11:20:08.648Z,15.9
2018-12-22T11:21:11.076Z,16
2018-12-22T11:22:13.218Z,16
2018-12-22T11:24:20.633Z,15.9
2018-12-22T11:25:22.808Z,15.8
2018-12-22T11:26:24.964Z,16
2018-12-22T11:27:27.394Z,15.9
2018-12-22T11:28:29.820Z,16.1
2018-12-22T11:29:32.251Z,15.9
2018-12-22T11:30:34.695Z,15.9
2018-12-22T11:31:36.867Z,15.8
2018-12-22T11:32:39.313Z,16
2018-12-22T11:33:41.485Z,15.9
2018-12-22T11:34:43.652Z,16.1
2018-12-22T11:35:45.836Z,15.9
2018-12-22T11:36:48.259Z,16
2018-12-22T11:37:50.439Z,16
2018-12-22T11:38:52.890Z,15.9
2018-12-22T11:39:55.427Z,16
2018-12-22T11:40:57.896Z,16.1
2018-12-22T11:41:59.786Z,15.8
2018-12-22T11:43:02.230Z,15.9
2018-12-22T11:44:04.203Z,16
2018-12-22T11:45:06.383Z,15.9
2018-12-22T11:46:08.832Z,16.1
2018-12-22T11:47:11.013Z,15.9
2018-12-22T11:48:13.452Z,16
2018-12-22T11:49:15.625Z,15.8
2018-12-22T11:50:18.114Z,16
2018-12-22T11:51:20.553Z,16
2018-12-22T11:52:23.034Z,15.9
2018-12-22T11:53:24.975Z,15.8
2018-12-22T11:54:27.170Z,15.9
2018-12-22T11:55:29.593Z,15.9
2018-12-22T11:56:32.140Z,15.9
2018-12-22T11:57:34.580Z,16
2018-12-22T11:58:38.884Z,16
2018-12-22T11:59:41.326Z,15.8
2018-12-22T12:00:43.748Z,15.8
2018-12-22T12:01:45.882Z,16
2018-12-22T12:02:48.316Z,15.9
2018-12-22T12:03:50.482Z,16
2018-12-22T12:04:52.951Z,16
2018-12-22T12:05:54.945Z,16
2018-12-22T12:06:57.118Z,16
2018-12-22T12:07:59.566Z,15.9
2018-12-22T12:09:01.731Z,15.9
2018-12-22T12:10:03.637Z,16
2018-12-22T12:11:06.064Z,15.8
2018-12-22T12:12:08.247Z,15.9
2018-12-22T12:13:10.434Z,16
2018-12-22T12:15:07.170Z,16.1
2018-12-22T12:16:09.123Z,16.1
2018-12-22T12:17:11.267Z,16.1
2018-12-22T12:18:12.906Z,16.2
2018-12-22T12:19:15.343Z,16.2
2018-12-22T12:20:17.484Z,16.1
2018-12-22T12:21:19.954Z,16.2
2018-12-22T12:22:22.516Z,16.2
2018-12-22T12:23:24.413Z,16.2
2018-12-22T12:24:26.836Z,16.2
2018-12-22T12:25:29.026Z,16.2
2018-12-22T12:26:31.197Z,16.2
2018-12-22T12:27:33.369Z,16.3
2018-12-22T12:28:35.797Z,16.4
2018-12-22T12:29:38.054Z,16.4
2018-12-22T12:30:40.214Z,16.6
2018-12-22T12:31:42.126Z,16.6
2018-12-22T12:32:48.768Z,16.5
2018-12-22T12:33:50.911Z,16.3
2018-12-22T12:34:53.076Z,16.4
2018-12-22T12:35:55.521Z,16.4
2018-12-22T12:36:57.956Z,16.3
2018-12-22T12:38:00.127Z,16.3
2018-12-22T12:39:02.556Z,16.3
2018-12-22T12:40:04.708Z,16.4
2018-12-22T12:41:06.877Z,16.3
2018-12-22T12:42:09.304Z,16.2
2018-12-22T12:43:11.764Z,16.3
2018-12-22T12:44:13.365Z,16.3
2018-12-22T12:45:30.172Z,16.3
2018-12-22T12:47:37.572Z,16.3
2018-12-22T12:48:40.014Z,16.3
2018-12-22T12:49:42.463Z,16.3
2018-12-22T12:50:44.903Z,16.3
2018-12-22T12:51:49.383Z,16.2
2018-12-22T12:52:51.246Z,16.2
2018-12-22T12:53:53.422Z,16.2
2018-12-22T12:54:55.894Z,16.2
2018-12-22T12:55:58.333Z,16.3
2018-12-22T12:57:00.531Z,16.3
2018-12-22T12:58:02.962Z,16.4
2018-12-22T12:59:05.133Z,16.5
2018-12-22T13:00:07.580Z,16.4
2018-12-22T13:01:10.025Z,16.6
2018-12-22T13:02:12.463Z,16.5
2018-12-22T13:03:14.884Z,16.5
2018-12-22T13:04:17.014Z,16.6
2018-12-22T13:05:19.455Z,16.6
2018-12-22T13:06:21.339Z,16.7
2018-12-22T13:07:23.824Z,16.7
2018-12-22T13:08:26.277Z,16.7
2018-12-22T13:09:28.702Z,16.6
2018-12-22T13:10:31.137Z,16.7
2018-12-22T13:11:33.563Z,16.7
2018-12-22T13:12:36.003Z,16.7
2018-12-22T13:13:38.467Z,16.6
2018-12-22T13:14:40.726Z,16.7
2018-12-22T13:15:43.167Z,16.7
2018-12-22T13:16:45.618Z,16.7
2018-12-22T13:17:48.062Z,16.8
2018-12-22T13:18:50.497Z,16.8
2018-12-22T13:19:53.166Z,16.8
2018-12-22T13:20:55.318Z,16.8
2018-12-22T13:21:57.473Z,16.8
2018-12-22T13:22:59.976Z,16.8
2018-12-22T13:24:02.427Z,16.8
2018-12-22T13:25:04.846Z,16.8
2018-12-22T13:26:06.733Z,16.8
2018-12-22T13:27:09.185Z,16.9
2018-12-22T13:28:11.601Z,16.8
2018-12-22T13:29:13.768Z,16.8
2018-12-22T13:30:15.919Z,16.8
2018-12-22T13:31:18.350Z,16.8
2018-12-22T13:32:20.789Z,16.8
2018-12-22T13:33:23.328Z,17
2018-12-22T13:34:26.443Z,16.8
2018-12-22T13:35:28.903Z,16.9
2018-12-22T13:37:36.316Z,16.9
2018-12-22T13:38:38.752Z,16.8
2018-12-22T13:39:40.927Z,16.9
2018-12-22T13:40:43.108Z,16.8
2018-12-22T13:41:45.266Z,16.8
2018-12-22T13:42:47.415Z,16.9
2018-12-22T13:43:49.657Z,16.8
2018-12-22T13:44:51.801Z,16.8
2018-12-22T13:45:53.953Z,16.9
2018-12-22T13:46:56.382Z,16.9
2018-12-22T13:47:59.310Z,16.8
2018-12-22T13:49:02.437Z,16.9
2018-12-22T13:50:05.330Z,16.8
2018-12-22T13:51:07.971Z,16.8
2018-12-22T13:52:10.573Z,16.8
2018-12-22T13:53:12.433Z,16.8
2018-12-22T13:54:14.874Z,16.8
2018-12-22T13:55:17.313Z,16.8
2018-12-22T13:56:19.485Z,16.8
2018-12-22T13:57:21.947Z,16.8
2018-12-22T13:58:23.843Z,16.8
2018-12-22T13:59:26.288Z,16.8
2018-12-22T14:00:28.732Z,16.7
2018-12-22T14:01:31.162Z,16.7
2018-12-22T14:02:33.988Z,16.7
2018-12-22T14:03:36.148Z,16.6
2018-12-22T14:04:38.281Z,16.6
2018-12-22T14:05:40.720Z,16.7
2018-12-22T14:06:42.883Z,16.7
2018-12-22T14:07:44.833Z,16.6
2018-12-22T14:08:47.251Z,16.6
2018-12-22T14:09:49.693Z,16.5
2018-12-22T14:10:51.853Z,16.6
2018-12-22T14:11:53.991Z,16.5
2018-12-22T14:12:56.177Z,16.5
2018-12-22T14:13:58.624Z,16.5
2018-12-22T14:15:00.804Z,16.5
2018-12-22T14:16:02.963Z,16.4
2018-12-22T14:17:05.129Z,16.6
2018-12-22T14:18:07.563Z,16.5
2018-12-22T14:19:09.695Z,16.4
2018-12-22T14:20:12.140Z,16.4
2018-12-22T14:21:14.571Z,16.6
2018-12-22T14:22:16.742Z,16.5
2018-12-22T14:23:18.624Z,16.5
2018-12-22T14:24:21.094Z,16.4
2018-12-22T14:25:23.276Z,16.5
2018-12-22T14:26:25.175Z,16.4
2018-12-22T14:27:27.334Z,16.5